Time;durP1;ratioP1;P1;durP2;ratioP2;P2;SDS_P1;SDS_P2;PMS_P1;PMS_P2;Temp;Humidity;BMP_temperature;BMP_pressure;BME280_temperature;BME280_humidity;BME280_pressure;Samples;Min_cycle;Max_cycle;Signal;HPM_P1;HPM_P2
2022/12/07 00:01:38;;;;;;;31.20;12.20;;;;;;;1.50;94.59;98079.22;1656637;86;25639;-70
2022/12/07 00:04:07;;;;;;;20.88;9.90;;;;;;;1.53;94.75;98077.86;1657024;86;27459;-67
2022/12/07 00:06:37;;;;;;;18.30;9.35;;;;;;;1.56;94.75;98072.74;1656919;86;25800;-67
2022/12/07 00:09:05;;;;;;;18.87;8.88;;;;;;;1.59;94.89;98072.20;1657160;86;25771;-67
2022/12/07 00:11:32;;;;;;;21.27;10.05;;;;;;;1.66;94.82;98069.22;1656601;86;26004;-67
2022/12/07 00:14:01;;;;;;;30.23;14.58;;;;;;;1.69;94.88;98067.86;1656581;86;25468;-67
2022/12/07 00:16:31;;;;;;;20.15;10.08;;;;;;;1.74;94.81;98065.17;1656977;86;28435;-68
2022/12/07 00:18:58;;;;;;;26.65;12.98;;;;;;;1.77;94.86;98063.81;1656814;86;25458;-67
2022/12/07 00:21:29;;;;;;;28.80;13.18;;;;;;;1.76;94.89;98061.67;1656884;86;25691;-67
2022/12/07 00:23:57;;;;;;;18.98;11.10;;;;;;;1.77;95.00;98065.98;1656581;86;25997;-66
2022/12/07 00:26:27;;;;;;;22.85;11.65;;;;;;;1.75;95.09;98061.38;1656642;86;25688;-67
2022/12/07 00:28:58;;;;;;;25.82;12.88;;;;;;;1.74;95.09;98057.89;1657087;86;27486;-67
2022/12/07 00:31:33;;;;;;;24.82;13.15;;;;;;;1.78;95.09;98060.05;1663953;85;25647;-66
2022/12/07 00:33:59;;;;;;;22.02;11.60;;;;;;;1.79;95.13;98055.73;1669343;85;25503;-68
2022/12/07 00:36:26;;;;;;;21.87;11.38;;;;;;;1.83;95.17;98055.45;1669054;86;26112;-66
2022/12/07 00:38:54;;;;;;;21.75;11.22;;;;;;;1.85;95.13;98055.18;1669138;86;25668;-67
2022/12/07 00:41:24;;;;;;;26.57;13.65;;;;;;;1.88;95.16;98051.38;1669262;86;27560;-66
2022/12/07 00:43:51;;;;;;;26.20;12.33;;;;;;;1.91;95.16;98048.69;1669320;86;25681;-67
2022/12/07 00:46:19;;;;;;;27.42;13.32;;;;;;;1.97;95.12;98047.61;1669101;86;25614;-66
2022/12/07 00:48:47;;;;;;;22.32;11.22;;;;;;;1.99;94.96;98048.13;1669063;86;26089;-66
2022/12/07 00:51:16;;;;;;;14.65;8.08;;;;;;;2.05;94.88;98045.43;1669361;86;25616;-67
2022/12/07 00:53:43;;;;;;;15.75;10.13;;;;;;;2.06;94.81;98045.16;1669552;86;27438;-67
2022/12/07 00:56:18;;;;;;;20.08;10.45;;;;;;;2.07;94.77;98047.33;1669316;86;25711;-66
2022/12/07 00:58:53;;;;;;;16.95;8.55;;;;;;;2.04;94.77;98043.82;1668168;86;25700;-66
2022/12/07 01:01:20;;;;;;;22.05;11.63;;;;;;;2.04;94.82;98043.82;1669349;86;26030;-66
2022/12/07 01:03:46;;;;;;;22.37;12.15;;;;;;;2.00;94.90;98034.91;1669249;86;25460;-67
2022/12/07 01:06:18;;;;;;;20.25;11.65;;;;;;;2.00;94.99;98040.84;1669410;86;27807;-69
2022/12/07 01:08:45;;;;;;;19.98;10.90;;;;;;;1.99;95.05;98043.28;1669292;86;25744;-71
2022/12/07 01:11:15;;;;;;;17.73;8.45;;;;;;;2.00;94.96;98034.09;1669039;86;25665;-67
2022/12/07 01:13:43;;;;;;;20.85;11.05;;;;;;;2.01;94.99;98037.05;1669205;86;26043;-67
2022/12/07 01:16:13;;;;;;;16.73;9.70;;;;;;;2.05;94.99;98038.67;1669104;86;25636;-66
2022/12/07 01:18:40;;;;;;;17.10;9.38;;;;;;;2.06;94.95;98038.94;1669533;86;28223;-66
2022/12/07 01:21:14;;;;;;;18.07;10.93;;;;;;;2.09;94.85;98032.98;1668981;85;25642;-68
2022/12/07 01:23:42;;;;;;;15.93;9.53;;;;;;;2.10;94.85;98031.92;1669416;86;25612;-67
2022/12/07 01:26:12;;;;;;;16.70;10.25;;;;;;;2.12;94.85;98024.33;1669038;85;26058;-67
2022/12/07 01:28:38;;;;;;;16.07;9.30;;;;;;;2.13;94.78;98028.11;1669455;86;25610;-66
2022/12/07 01:31:12;;;;;;;18.37;10.78;;;;;;;2.13;94.75;98028.11;1669053;86;27410;-69
2022/12/07 01:33:39;;;;;;;20.60;11.73;;;;;;;2.17;94.78;98028.38;1669443;86;25867;-66
2022/12/07 01:36:23;;;;;;;18.40;9.63;;;;;;;2.19;94.74;98025.41;1669086;86;25669;-67
2022/12/07 01:39:06;;;;;;;17.10;9.63;;;;;;;2.21;94.76;98027.28;1661799;86;26093;-67
2022/12/07 01:41:36;;;;;;;16.40;9.43;;;;;;;2.20;94.71;98021.08;1669087;86;25658;-68
2022/12/07 01:44:19;;;;;;;15.30;9.38;;;;;;;2.20;94.76;98027.02;1669477;86;27424;-68
2022/12/07 01:46:56;;;;;;;22.93;11.05;;;;;;;2.15;94.86;98022.43;1669105;86;25610;-66
2022/12/07 01:49:46;;;;;;;20.48;11.88;;;;;;;2.13;94.92;98023.27;1667828;86;25451;-67
2022/12/07 01:52:20;;;;;;;21.73;11.75;;;;;;;2.12;94.92;98017.04;1641803;86;26006;-66
2022/12/07 01:54:49;;;;;;;27.77;14.13;;;;;;;2.14;94.95;98019.47;1669577;86;25585;-66
2022/12/07 01:57:18;;;;;;;25.08;13.22;;;;;;;2.19;94.91;98025.41;1668536;84;27374;-65
2022/12/07 01:59:49;;;;;;;23.30;12.25;;;;;;;2.20;94.88;98017.02;1666062;86;25708;-65
2022/12/07 02:02:22;;;;;;;;;;;;;;;2.23;94.89;98013.77;1668679;86;25614;-67
2022/12/07 02:04:49;;;;;;;21.70;11.55;;;;;;;2.25;94.87;98012.14;1631750;87;26037;-65
2022/12/07 02:07:16;;;;;;;26.12;13.18;;;;;;;2.27;94.78;98014.02;1635227;86;25756;-65
2022/12/07 02:09:43;;;;;;;23.60;12.53;;;;;;;2.30;94.79;98012.67;1658253;86;27433;-66
2022/12/07 02:12:09;;;;;;;21.52;11.68;;;;;;;2.34;94.76;98019.14;1658167;86;25538;-66
2022/12/07 02:14:36;;;;;;;21.62;11.80;;;;;;;2.36;94.63;98016.42;1658282;86;25461;-65
2022/12/07 02:17:29;;;;;;;21.27;11.70;;;;;;;2.38;94.76;98016.97;1658547;86;26159;-68
2022/12/07 02:20:16;;;;;;;19.60;10.28;;;;;;;2.36;94.73;98015.63;1657979;86;25455;-67
2022/12/07 02:23:09;;;;;;;19.90;11.45;;;;;;;2.33;94.74;98018.89;1658464;86;27461;-66
2022/12/07 02:26:13;;;;;;;20.02;10.48;;;;;;;2.28;94.74;98025.12;1657526;86;25652;-66
2022/12/07 02:29:11;;;;;;;22.75;12.25;;;;;;;2.27;94.89;98020.77;1658702;86;25645;-66
2022/12/07 02:31:42;;;;;;;19.80;11.40;;;;;;;2.25;94.89;98018.91;1658468;86;26829;-66
2022/12/07 02:34:23;;;;;;;21.70;12.23;;;;;;;2.23;94.93;98022.41;1658232;86;25708;-65
2022/12/07 02:36:57;;;;;;;18.90;10.88;;;;;;;2.24;94.99;98021.32;1657983;86;27513;-67
2022/12/07 02:39:43;;;;;;;19.65;11.65;;;;;;;2.27;94.95;98018.06;1657738;86;27253;-68
2022/12/07 02:42:17;;;;;;;20.77;11.63;;;;;;;2.28;94.93;98015.66;1657619;86;25695;-70
2022/12/07 02:44:46;;;;;;;22.67;11.63;;;;;;;2.30;94.95;98014.03;1658482;86;26101;-70
2022/12/07 02:47:16;;;;;;;23.55;13.60;;;;;;;2.34;94.89;98011.85;1658840;86;25827;-67
2022/12/07 02:49:43;;;;;;;20.53;11.27;;;;;;;2.39;94.87;98013.73;1658761;86;27883;-67
2022/12/07 02:52:10;;;;;;;20.12;11.43;;;;;;;2.39;94.66;98012.37;1658498;86;25668;-71
2022/12/07 02:54:36;;;;;;;22.95;12.98;;;;;;;2.42;94.57;98008.30;1658575;86;25514;-66
2022/12/07 02:57:14;;;;;;;18.70;9.65;;;;;;;2.40;94.58;98004.52;1658778;85;26142;-70
2022/12/07 03:00:12;;;;;;;18.27;9.75;;;;;;;2.41;94.55;98007.48;1658210;86;25534;-71
2022/12/07 03:02:55;;;;;;;19.70;10.28;;;;;;;2.40;94.50;98009.11;1658690;86;27529;-67
2022/12/07 03:05:30;;;;;;;21.35;10.65;;;;;;;2.36;94.50;98008.31;1658311;86;27190;-71
2022/12/07 03:08:26;;;;;;;17.32;9.65;;;;;;;2.32;94.60;98009.95;1658381;86;25697;-69
2022/12/07 03:11:00;;;;;;;23.32;12.50;;;;;;;2.29;94.65;97994.81;1658271;86;25985;-69
2022/12/07 03:13:56;;;;;;;24.25;12.78;;;;;;;2.24;94.73;98000.52;1658728;86;25629;-67
2022/12/07 03:16:43;;;;;;;25.55;12.75;;;;;;;2.26;94.80;98001.59;1657353;86;27405;-66
2022/12/07 03:19:14;;;;;;;22.93;12.65;;;;;;;2.27;94.91;98007.81;1658280;86;26202;-68
2022/12/07 03:21:45;;;;;;;16.50;9.95;;;;;;;2.29;94.86;98009.69;1658098;86;25664;-70
2022/12/07 03:24:19;;;;;;;22.25;11.95;;;;;;;2.29;94.96;98011.03;1657656;86;26049;-72
2022/12/07 03:26:57;;;;;;;17.95;9.85;;;;;;;2.33;94.96;98006.72;1658561;86;25470;-69
2022/12/07 03:29:35;;;;;;;18.40;9.90;;;;;;;2.33;94.80;98010.77;1657996;86;27231;-67
2022/12/07 03:32:15;;;;;;;15.58;9.30;;;;;;;2.34;94.67;98006.98;1657241;86;25732;-67
2022/12/07 03:34:58;;;;;;;17.55;9.60;;;;;;;2.34;94.64;98017.27;1657975;86;25642;-66
2022/12/07 03:37:35;;;;;;;16.37;10.28;;;;;;;2.40;94.90;98018.58;1657918;86;26179;-67
2022/12/07 03:40:42;;;;;;;18.12;9.73;;;;;;;2.44;95.00;98013.70;1658378;86;25621;-66
2022/12/07 03:43:09;;;;;;;18.00;9.93;;;;;;;2.43;94.71;98008.56;1658323;86;27508;-69
2022/12/07 03:45:46;;;;;;;16.75;9.83;;;;;;;2.41;94.92;98010.72;1658200;86;25536;-73
2022/12/07 03:48:39;;;;;;;15.28;9.13;;;;;;;2.37;94.69;98007.25;1658151;86;25755;-68
2022/12/07 03:51:35;;;;;;;19.80;10.90;;;;;;;2.35;94.59;98012.11;1658025;86;27056;-70
2022/12/07 03:54:19;;;;;;;19.52;11.78;;;;;;;2.36;94.60;98013.72;1577429;90;25858;-73
2022/12/07 03:56:48;;;;;;;17.95;10.32;;;;;;;2.40;94.48;98011.81;1577878;90;28338;-73
2022/12/07 03:59:16;;;;;;;20.57;11.70;;;;;;;2.36;94.21;98010.23;1582720;90;25542;-72
2022/12/07 04:01:47;;;;;;;19.60;10.75;;;;;;;2.37;94.24;98009.95;1583711;90;25738;-70
2022/12/07 04:04:13;;;;;;;;;;;;;;;2.39;93.97;98009.67;1586250;90;26198;-68
2022/12/07 04:06:40;;;;;;;13.53;7.65;;;;;;;2.41;94.07;98008.02;1583764;90;25707;-74
2022/12/07 04:09:06;;;;;;;15.65;7.90;;;;;;;2.39;94.05;98016.44;1583856;90;28049;-70
2022/12/07 04:11:33;;;;;;;14.47;7.97;;;;;;;2.37;93.94;98009.95;1583794;90;26287;-70
2022/12/07 04:16:49;;;;;;;12.63;6.97;;;;;;;2.30;93.79;98014.81;1583786;90;25520;-73
2022/12/07 04:19:19;;;;;;;15.48;8.15;;;;;;;2.26;93.82;98016.46;1583996;90;25778;-73
2022/12/07 04:21:45;;;;;;;15.10;9.13;;;;;;;2.21;93.43;98017.28;1583977;90;27581;-70
2022/12/07 04:24:14;;;;;;;16.62;8.30;;;;;;;2.18;93.39;98012.95;1583681;90;27282;-66
2022/12/07 04:26:41;;;;;;;15.13;8.43;;;;;;;2.11;93.18;98007.32;1584022;90;25709;-67
2022/12/07 04:29:09;;;;;;;13.78;8.10;;;;;;;2.13;93.35;98012.45;1583684;90;26101;-68
2022/12/07 04:31:36;;;;;;;15.55;8.13;;;;;;;2.17;93.42;98015.40;1654038;86;25634;-68
2022/12/07 04:34:04;;;;;;;13.88;8.38;;;;;;;2.17;93.30;98016.75;1632146;87;27496;-67
2022/12/07 04:36:31;;;;;;;15.63;8.18;;;;;;;2.21;93.46;98019.16;1660494;86;25639;-68
2022/12/07 04:38:58;;;;;;;14.80;9.08;;;;;;;2.22;93.23;98020.24;1631563;87;25733;-67
2022/12/07 04:41:28;;;;;;;14.87;8.60;;;;;;;2.21;93.37;98012.41;1660320;86;26020;-66
2022/12/07 04:43:58;;;;;;;14.45;8.68;;;;;;;2.15;93.03;98010.80;1632371;87;25680;-69
2022/12/07 04:46:26;;;;;;;19.05;10.90;;;;;;;2.10;93.25;98015.14;1659861;86;28100;-66
2022/12/07 04:48:53;;;;;;;15.78;8.33;;;;;;;2.06;93.38;98016.78;1665684;86;25463;-67
2022/12/07 04:51:24;;;;;;;11.90;6.95;;;;;;;1.98;93.30;98014.09;1645941;86;25642;-66
2022/12/07 04:53:52;;;;;;;23.32;11.35;;;;;;;1.94;93.45;98014.91;1646097;87;26653;-66
2022/12/07 04:56:19;;;;;;;13.00;7.12;;;;;;;1.94;93.45;98021.66;1645688;87;25705;-67
2022/12/07 04:58:47;;;;;;;13.55;7.78;;;;;;;1.89;93.09;98022.47;1645608;86;27468;-67
2022/12/07 05:01:17;;;;;;;11.03;6.45;;;;;;;1.89;93.26;98029.23;1645934;87;25471;-67
2022/12/07 05:03:43;;;;;;;10.85;6.53;;;;;;;1.85;92.98;98026.28;1646056;87;25500;-66
2022/12/07 05:06:11;;;;;;;11.22;6.42;;;;;;;1.82;92.98;98026.82;1645669;87;26105;-66
2022/12/07 05:08:38;;;;;;;11.05;6.87;;;;;;;1.81;92.94;98031.94;1645903;87;25709;-66
2022/12/07 05:11:07;;;;;;;10.40;6.65;;;;;;;1.81;93.19;98030.58;1645751;86;27497;-67
2022/12/07 05:13:34;;;;;;;13.62;7.83;;;;;;;1.80;92.94;98027.63;1645962;86;25633;-66
2022/12/07 05:16:00;;;;;;;12.53;7.20;;;;;;;1.79;93.31;98030.06;1645768;87;25477;-66
2022/12/07 05:18:27;;;;;;;14.15;7.53;;;;;;;1.75;93.20;98027.61;1645629;86;26075;-66
2022/12/07 05:20:54;;;;;;;15.38;8.25;;;;;;;1.71;93.28;98026.02;1645685;87;25645;-66
2022/12/07 05:23:21;;;;;;;15.70;9.70;;;;;;;1.68;93.28;98029.78;1645885;87;27518;-66
2022/12/07 05:25:47;;;;;;;19.23;10.40;;;;;;;1.70;93.52;98022.23;1646070;87;25638;-68
2022/12/07 05:28:13;;;;;;;16.42;9.85;;;;;;;1.75;93.69;98028.44;1645628;87;25697;-67
2022/12/07 05:30:40;;;;;;;17.87;9.33;;;;;;;1.78;93.51;98020.88;1645617;87;26079;-66
2022/12/07 05:33:07;;;;;;;15.75;9.83;;;;;;;1.79;93.33;98026.02;1645884;86;25495;-67
2022/12/07 05:35:33;;;;;;;14.75;8.58;;;;;;;1.80;93.17;98028.16;1645598;87;27460;-66
2022/12/07 05:38:00;;;;;;;18.75;9.55;;;;;;;1.75;92.86;98033.84;1645929;87;25630;-70
2022/12/07 05:40:26;;;;;;;31.10;17.92;;;;;;;1.71;93.07;98028.72;1645658;86;25625;-66
2022/12/07 05:42:52;;;;;;;24.02;14.13;;;;;;;1.71;93.27;98021.96;1645845;87;26427;-65
2022/12/07 05:45:19;;;;;;;25.15;13.95;;;;;;;1.71;93.32;98030.59;1645698;86;25701;-66
2022/12/07 05:47:45;;;;;;;28.65;14.40;;;;;;;1.69;93.30;98027.34;1641658;87;27468;-66
2022/12/07 05:50:12;;;;;;;30.50;16.37;;;;;;;1.63;93.21;98029.24;1646647;86;25736;-66
2022/12/07 05:52:38;;;;;;;29.75;14.23;;;;;;;1.62;93.15;98028.42;1649949;87;25772;-67
2022/12/07 05:55:06;;;;;;;26.10;13.22;;;;;;;1.60;93.06;98027.08;1642432;87;26084;-68
2022/12/07 05:57:33;;;;;;;28.23;14.33;;;;;;;1.59;93.02;98027.64;1641351;86;25775;-67
2022/12/07 05:59:59;;;;;;;22.60;11.60;;;;;;;1.61;93.04;98026.81;1661149;84;26611;-67
2022/12/07 06:02:25;;;;;;;19.98;11.10;;;;;;;1.61;93.06;98029.52;1671648;85;25815;-67
2022/12/07 06:04:51;;;;;;;35.35;16.85;;;;;;;1.62;92.80;98031.12;1690948;84;25749;-67
2022/12/07 06:07:18;;;;;;;31.52;15.72;;;;;;;1.63;93.09;98033.30;1692040;84;26004;-68
2022/12/07 06:09:44;;;;;;;35.28;18.62;;;;;;;1.63;92.85;98036.00;1670871;85;25657;-66
2022/12/07 06:14:58;;;;;;;29.05;15.28;;;;;;;1.54;93.02;98033.56;1668005;85;25690;-67
2022/12/07 06:17:24;;;;;;;27.27;13.28;;;;;;;1.49;93.19;98034.37;1666386;86;25512;-67
2022/12/07 06:19:51;;;;;;;27.52;14.15;;;;;;;1.46;93.10;98032.20;1667172;85;25628;-68
2022/12/07 06:22:18;;;;;;;25.90;13.78;;;;;;;1.40;93.08;98034.09;1666706;86;25648;-70
2022/12/07 06:24:44;;;;;;;23.73;11.78;;;;;;;1.41;93.14;98043.02;1667121;86;27484;-66
2022/12/07 06:27:11;;;;;;;31.70;15.00;;;;;;;1.43;93.29;98044.89;1667186;86;25719;-67
2022/12/07 06:29:37;;;;;;;25.23;13.60;;;;;;;1.43;93.14;98049.77;1667610;86;25478;-66
2022/12/07 06:32:05;;;;;;;31.90;16.50;;;;;;;1.44;93.29;98051.38;1666189;86;26218;-66
2022/12/07 06:34:31;;;;;;;32.50;16.20;;;;;;;1.46;93.27;98050.58;1666269;86;25442;-65
2022/12/07 06:36:58;;;;;;;28.50;13.83;;;;;;;1.46;93.26;98054.62;1665980;86;27900;-65
2022/12/07 06:39:28;;;;;;;37.80;17.27;;;;;;;1.46;93.26;98063.25;1665716;86;25521;-65
2022/12/07 06:41:55;;;;;;;31.42;14.68;;;;;;;1.41;93.19;98065.41;1666053;86;25509;-65
2022/12/07 06:44:23;;;;;;;28.07;14.43;;;;;;;1.34;93.11;98062.16;1666043;86;26066;-66
2022/12/07 06:46:50;;;;;;;26.37;13.08;;;;;;;1.31;93.29;98062.70;1666175;86;25702;-65
2022/12/07 06:49:17;;;;;;;33.18;15.83;;;;;;;1.26;93.28;98054.05;1666034;86;27523;-66
2022/12/07 06:51:44;;;;;;;27.82;13.32;;;;;;;1.26;93.30;98052.70;1666012;86;25671;-65
2022/12/07 06:54:13;;;;;;;26.90;13.15;;;;;;;1.25;93.28;98060.01;1665820;86;25699;-67
2022/12/07 06:56:40;;;;;;;24.43;12.28;;;;;;;1.28;93.43;98055.95;1666043;86;26076;-65
2022/12/07 06:59:08;;;;;;;19.23;11.30;;;;;;;1.29;93.43;98062.97;1662235;86;25445;-65
2022/12/07 07:01:36;;;;;;;28.62;13.95;;;;;;;1.32;93.60;98067.04;1656410;86;29547;-65
2022/12/07 07:04:03;;;;;;;28.55;12.85;;;;;;;1.33;93.51;98060.02;1656316;86;25692;-65
2022/12/07 07:06:30;;;;;;;32.28;13.75;;;;;;;1.34;93.60;98060.29;1656713;86;25681;-65
2022/12/07 07:08:56;;;;;;;28.40;13.32;;;;;;;1.36;93.56;98062.16;1656434;86;26040;-66
2022/12/07 07:11:23;;;;;;;28.32;12.95;;;;;;;1.36;93.58;98056.76;1655577;86;25684;-65
2022/12/07 07:13:49;;;;;;;29.72;14.58;;;;;;;1.34;93.63;98061.64;1654177;86;28118;-65
2022/12/07 07:16:16;;;;;;;26.25;13.35;;;;;;;1.33;93.75;98057.85;1656356;86;25711;-65
2022/12/07 07:18:43;;;;;;;30.00;14.47;;;;;;;1.32;93.87;98065.13;1656458;86;25499;-66
2022/12/07 07:21:09;;;;;;;33.38;14.30;;;;;;;1.32;93.96;98067.83;1656354;86;26074;-65
2022/12/07 07:23:36;;;;;;;28.60;12.58;;;;;;;1.35;93.92;98070.00;1656682;86;25807;-68
2022/12/07 07:26:02;;;;;;;29.23;12.28;;;;;;;1.40;94.00;98067.84;1656382;86;27459;-65
2022/12/07 07:28:29;;;;;;;22.93;11.30;;;;;;;1.42;94.06;98058.95;1656572;86;25759;-65
2022/12/07 07:30:55;;;;;;;26.90;12.63;;;;;;;1.45;94.05;98057.06;1656413;86;25454;-66
2022/12/07 07:33:22;;;;;;;39.83;14.60;;;;;;;1.49;94.00;98055.44;1656832;86;25892;-65
2022/12/07 07:35:48;;;;;;;34.33;12.82;;;;;;;1.53;94.00;98053.02;1656454;85;25490;-64
2022/12/07 07:38:15;;;;;;;32.98;13.40;;;;;;;1.58;94.24;98053.02;1656436;86;27492;-66
2022/12/07 07:40:41;;;;;;;34.60;14.28;;;;;;;1.63;94.12;98057.61;1656318;86;25501;-65
2022/12/07 07:43:14;;;;;;;33.67;13.80;;;;;;;1.69;94.14;98057.06;1656395;86;25465;-65
2022/12/07 07:45:55;;;;;;;29.65;14.73;;;;;;;1.72;94.11;98055.98;1656448;86;26972;-68
2022/12/07 07:48:30;;;;;;;34.67;15.93;;;;;;;1.74;94.11;98053.02;1656739;86;25580;-64
2022/12/07 07:51:09;;;;;;;34.13;14.98;;;;;;;1.77;94.11;98058.41;1656385;86;27412;-66
2022/12/07 07:53:35;;;;;;;21.90;10.28;;;;;;;1.77;94.03;98059.77;1656535;86;25683;-66
2022/12/07 07:56:03;;;;;;;21.52;9.73;;;;;;;1.76;94.00;98050.87;1656534;86;25627;-65
2022/12/07 07:58:30;;;;;;;16.52;8.73;;;;;;;1.78;93.83;98068.16;1656598;86;26297;-67
2022/12/07 08:00:56;;;;;;;17.92;9.13;;;;;;;1.79;93.81;98059.78;1656736;86;25524;-63
2022/12/07 08:03:23;;;;;;;13.55;7.60;;;;;;;1.85;93.85;98067.34;1656621;86;27445;-64
2022/12/07 08:05:49;;;;;;;19.65;8.78;;;;;;;1.84;93.62;98061.11;1656570;86;25446;-64
2022/12/07 08:08:16;;;;;;;17.70;9.75;;;;;;;1.88;93.70;98068.15;1656659;86;25694;-64
2022/12/07 08:10:42;;;;;;;20.95;10.03;;;;;;;1.93;93.76;98066.78;1656910;86;26120;-64
2022/12/07 08:13:13;;;;;;;22.87;10.78;;;;;;;1.97;93.65;98068.41;1657094;86;25438;-63
2022/12/07 08:15:45;;;;;;;20.12;9.30;;;;;;;2.01;93.79;98074.88;1656968;86;27591;-63
2022/12/07 08:18:13;;;;;;;17.73;9.43;;;;;;;2.07;93.84;98070.30;1656906;86;25704;-64
2022/12/07 08:20:40;;;;;;;13.93;7.60;;;;;;;2.10;93.79;98073.81;1656880;86;25636;-63
2022/12/07 08:23:10;;;;;;;15.13;8.60;;;;;;;2.09;93.72;98068.94;1656544;86;26067;-63
2022/12/07 08:25:36;;;;;;;15.15;7.60;;;;;;;2.09;93.87;98068.94;1657041;86;25665;-63
2022/12/07 08:28:03;;;;;;;17.48;8.18;;;;;;;2.09;93.98;98066.77;1656636;86;27378;-64
2022/12/07 08:30:31;;;;;;;17.92;9.83;;;;;;;2.08;93.94;98068.68;1652843;86;25477;-68
2022/12/07 08:32:58;;;;;;;16.77;8.43;;;;;;;2.06;94.06;98072.72;1656634;86;25659;-65
2022/12/07 08:35:25;;;;;;;16.57;9.53;;;;;;;2.06;94.08;98077.59;1656869;86;26013;-69
2022/12/07 08:37:53;;;;;;;14.40;7.67;;;;;;;2.10;94.12;98085.98;1656723;86;25619;-65
2022/12/07 08:40:20;;;;;;;15.60;8.40;;;;;;;2.12;93.99;98082.45;1656626;85;27424;-67
2022/12/07 08:42:51;;;;;;;13.65;6.65;;;;;;;2.15;93.94;98086.48;1656593;86;25703;-64
2022/12/07 08:45:20;;;;;;;15.88;8.33;;;;;;;2.18;93.83;98085.95;1656798;86;25455;-64
2022/12/07 08:48:10;;;;;;;13.78;7.33;;;;;;;2.20;93.72;98082.44;1656966;86;26636;-69
2022/12/07 08:50:38;;;;;;;12.80;6.65;;;;;;;2.24;93.75;98078.09;1656740;86;25630;-70
2022/12/07 08:53:06;;;;;;;11.48;5.65;;;;;;;2.29;93.66;98083.51;1656525;86;27419;-66
2022/12/07 08:55:35;;;;;;;9.40;5.30;;;;;;;2.31;93.41;98082.70;1656634;86;25667;-66
2022/12/07 08:58:03;;;;;;;8.45;4.97;;;;;;;2.36;93.25;98080.53;1656979;86;25721;-66
2022/12/07 09:00:30;;;;;;;9.43;4.50;;;;;;;2.36;92.83;98079.18;1656460;86;25996;-70
2022/12/07 09:02:56;;;;;;;14.40;7.62;;;;;;;2.31;92.58;98080.53;1656411;86;25647;-71
2022/12/07 09:05:23;;;;;;;15.95;6.80;;;;;;;2.33;93.05;98081.08;1656681;86;27482;-66
2022/12/07 09:07:54;;;;;;;9.63;5.42;;;;;;;2.35;93.11;98081.59;1656269;86;25727;-66
2022/12/07 09:10:21;;;;;;;10.48;5.17;;;;;;;2.31;92.98;98081.35;1656725;86;25506;-66
2022/12/07 09:12:47;;;;;;;11.90;5.90;;;;;;;2.28;92.86;98080.55;1656301;86;26099;-66
2022/12/07 09:15:14;;;;;;;11.75;5.55;;;;;;;2.30;93.09;98077.56;1656394;86;25717;-69
2022/12/07 09:17:40;;;;;;;13.38;7.08;;;;;;;2.34;92.96;98071.88;1656467;86;27452;-66
2022/12/07 09:20:08;;;;;;;14.55;8.15;;;;;;;2.34;92.80;98067.28;1656409;86;25683;-80
2022/12/07 09:22:35;;;;;;;56.18;23.50;;;;;;;2.40;92.99;98068.08;1656707;86;25503;-70
2022/12/07 09:25:02;;;;;;;163.03;59.95;;;;;;;2.46;92.96;98064.80;1656362;86;26475;-76
2022/12/07 09:27:29;;;;;;;493.10;184.43;;;;;;;2.48;92.66;98058.59;1656361;86;25513;-68
2022/12/07 09:29:56;;;;;;;347.42;75.95;;;;;;;2.53;92.84;98057.77;1656626;86;27241;-71
2022/12/07 09:32:23;;;;;;;54.67;16.42;;;;;;;2.58;92.68;98061.79;1656358;86;25454;-66
2022/12/07 09:34:49;;;;;;;28.27;10.48;;;;;;;2.60;92.71;98057.75;1656585;86;25644;-66
2022/12/07 09:37:16;;;;;;;42.70;11.38;;;;;;;2.59;92.26;98056.11;1656965;86;25946;-74
2022/12/07 09:39:49;;;;;;;29.82;8.80;;;;;;;2.58;91.90;98049.62;1656438;86;25691;-67
2022/12/07 09:42:36;;;;;;;27.10;7.70;;;;;;;2.58;91.98;98054.50;1656587;86;27570;-72
2022/12/07 09:45:05;;;;;;;66.57;17.07;;;;;;;2.55;91.14;98047.46;1656682;86;25632;-66
2022/12/07 09:47:34;;;;;;;63.40;16.67;;;;;;;2.62;91.89;98042.59;1656570;86;25721;-72
2022/12/07 09:50:09;;;;;;;40.80;10.48;;;;;;;2.71;92.23;98036.06;1656630;86;26765;-70
2022/12/07 09:52:36;;;;;;;43.40;12.30;;;;;;;2.78;91.71;98028.44;1656213;86;25498;-69
2022/12/07 09:55:06;;;;;;;40.75;11.18;;;;;;;2.87;91.78;98027.31;1656578;86;28354;-71
2022/12/07 09:57:35;;;;;;;54.95;14.28;;;;;;;2.96;91.32;98031.05;1656355;86;25537;-74
2022/12/07 10:00:07;;;;;;;22.48;7.20;;;;;;;3.06;91.32;98035.62;1656602;86;25789;-77
2022/12/07 10:02:41;;;;;;;19.95;6.67;;;;;;;3.16;90.49;98027.17;1656094;86;26200;-76
2022/12/07 10:05:19;;;;;;;35.10;10.63;;;;;;;3.25;90.48;98022.22;1656938;86;25648;-68
2022/12/07 10:07:45;;;;;;;26.57;7.47;;;;;;;3.38;90.92;98023.50;1656834;86;28257;-74
2022/12/07 10:10:20;;;;;;;60.08;17.35;;;;;;;3.49;90.42;98010.66;1656505;86;25706;-70
2022/12/07 10:13:05;;;;;;;31.00;9.73;;;;;;;3.58;90.40;98014.14;1656990;86;25525;-67
2022/12/07 10:15:46;;;;;;;33.78;10.50;;;;;;;3.63;88.82;98006.77;1656971;86;25986;-67
2022/12/07 10:18:41;;;;;;;31.87;11.33;;;;;;;3.69;88.43;98005.38;1657084;86;25634;-68
2022/12/07 10:21:23;;;;;;;19.42;8.45;;;;;;;3.73;88.68;98000.46;1656565;86;27419;-68
2022/12/07 10:24:14;;;;;;;21.17;8.10;;;;;;;3.80;88.21;97993.34;1652631;86;26535;-68
2022/12/07 10:26:51;;;;;;;28.70;9.25;;;;;;;3.92;88.33;97993.52;1657176;86;25603;-69
2022/12/07 10:29:33;;;;;;;22.30;7.83;;;;;;;3.96;86.56;97983.71;1656611;86;26103;-69
2022/12/07 10:32:17;;;;;;;15.95;5.87;;;;;;;3.97;86.06;97990.77;1656585;86;25688;-69
2022/12/07 10:34:44;;;;;;;50.15;15.48;;;;;;;3.86;84.58;97985.42;1656609;86;27507;-69
2022/12/07 10:37:19;;;;;;;30.20;10.82;;;;;;;3.84;86.28;97985.45;1656464;86;25755;-72
2022/12/07 10:39:56;;;;;;;24.90;8.60;;;;;;;3.91;86.19;97981.06;1656771;86;25623;-70
2022/12/07 10:42:34;;;;;;;32.23;10.93;;;;;;;3.92;85.49;97986.20;1656884;86;26073;-73
2022/12/07 10:45:17;;;;;;;28.25;11.93;;;;;;;3.97;86.14;97986.13;1657066;86;25457;-73
2022/12/07 10:47:57;;;;;;;33.02;11.90;;;;;;;4.00;86.21;97983.42;1657158;86;28108;-75
2022/12/07 10:50:59;;;;;;;35.35;15.95;;;;;;;3.99;85.69;97979.07;1656569;86;25815;-74
2022/12/07 10:53:48;;;;;;;278.95;204.63;;;;;;;3.94;85.64;97986.70;1656925;86;25699;-74
2022/12/07 10:56:55;;;;;;;75.05;44.18;;;;;;;3.89;86.36;97979.43;1656793;86;26961;-74
2022/12/07 10:59:33;;;;;;;35.05;19.23;;;;;;;3.85;86.06;97981.64;1657146;86;25486;-75
2022/12/07 11:02:04;;;;;;;88.37;66.15;;;;;;;3.75;85.45;97978.50;1664029;86;27505;-74
2022/12/07 11:04:57;;;;;;;202.07;148.22;;;;;;;3.71;85.96;97977.46;1658012;85;25477;-72
2022/12/07 11:07:49;;;;;;;214.82;149.38;;;;;;;3.71;85.97;97975.54;1665540;86;25647;-73
2022/12/07 11:10:42;;;;;;;48.87;23.47;;;;;;;3.73;85.94;97970.66;1665232;85;26042;-72
2022/12/07 11:13:13;;;;;;;56.45;29.27;;;;;;;3.74;86.17;97970.91;1657728;85;25612;-72
2022/12/07 11:16:23;;;;;;;121.92;74.25;;;;;;;3.77;86.32;97968.16;1672929;85;27402;-72
2022/12/07 11:19:22;;;;;;;55.78;27.22;;;;;;;3.77;85.92;97968.16;1584736;90;25621;-72
2022/12/07 11:21:58;;;;;;;35.52;18.55;;;;;;;3.74;86.15;97970.91;1583549;90;26262;-72
2022/12/07 11:25:11;;;;;;;72.15;42.98;;;;;;;3.71;84.71;97962.56;1605220;89;26679;-73
2022/12/07 11:28:09;;;;;;;49.13;28.35;;;;;;;3.67;85.37;97963.66;1561838;91;25782;-73
2022/12/07 11:30:43;;;;;;;213.90;144.68;;;;;;;3.69;84.86;97959.31;1541061;93;27568;-73
2022/12/07 11:33:38;;;;;;;52.10;26.80;;;;;;;3.69;85.34;97961.48;1511648;93;25923;-74
2022/12/07 11:36:16;;;;;;;23.95;13.93;;;;;;;3.75;85.16;97960.88;1484385;96;25586;-76
2022/12/07 11:38:48;;;;;;;38.05;19.55;;;;;;;3.98;84.61;97944.39;1484370;96;26738;-75
2022/12/07 11:41:31;;;;;;;58.87;28.60;;;;;;;4.57;84.42;97947.48;1483922;95;25718;-75
2022/12/07 11:44:23;;;;;;;152.10;95.03;;;;;;;5.11;82.02;97947.28;1484090;96;27479;-75
2022/12/07 11:47:03;;;;;;;37.60;15.35;;;;;;;5.38;81.48;97939.52;1478770;96;25841;-74
2022/12/07 11:49:56;;;;;;;38.67;22.27;;;;;;;5.40;79.73;97936.77;1483959;96;25851;-74
2022/12/07 11:52:39;;;;;;;15.35;8.48;;;;;;;5.34;79.66;97936.60;1484278;96;26101;-74
2022/12/07 11:55:13;;;;;;;80.32;52.15;;;;;;;5.56;79.53;97935.70;1441433;98;25925;-74
2022/12/07 11:57:44;;;;;;;112.72;76.20;;;;;;;5.65;78.91;97938.78;1482140;94;28709;-72
2022/12/07 12:00:17;;;;;;;36.28;21.57;;;;;;;5.62;77.36;97940.73;1536623;92;25843;-72